Time;durP1;ratioP1;P1;durP2;ratioP2;P2;SDS_P1;SDS_P2;PMS_P1;PMS_P2;Temp;Humidity;BMP_temperature;BMP_pressure;BME280_temperature;BME280_humidity;BME280_pressure;Samples;Min_cycle;Max_cycle;Signal;HPM_P1;HPM_P2
2022/01/23 00:02:18;;;;;;;3.75;3.42;;;;;;;2.80;100.00;100490.97;4949034;29;20098;-69
2022/01/23 00:04:44;;;;;;;7.28;2.58;;;;;;;2.82;100.00;100488.47;4935465;29;20086;-69
2022/01/23 00:07:12;;;;;;;2.60;2.50;;;;;;;2.75;100.00;100487.31;4934542;29;20430;-69
2022/01/23 00:09:38;;;;;;;3.00;2.80;;;;;;;2.80;100.00;100485.84;4934349;29;20086;-69
2022/01/23 00:12:09;;;;;;;1.83;1.73;;;;;;;2.69;100.00;100484.53;4934492;29;20035;-69
2022/01/23 00:17:23;;;;;;;3.33;2.45;;;;;;;2.67;100.00;100483.59;4934922;29;20038;-69
2022/01/23 00:19:56;;;;;;;3.50;2.60;;;;;;;2.70;100.00;100486.25;4934516;29;20030;-69
2022/01/23 00:22:29;;;;;;;1.73;1.42;;;;;;;2.64;100.00;100483.44;4934773;29;20035;-69
2022/01/23 00:30:30;;;;;;;2.45;2.35;;;;;;;2.52;100.00;100480.41;4934701;29;20401;-69
2022/01/23 00:32:58;;;;;;;3.47;3.20;;;;;;;2.61;100.00;100487.56;4940431;29;20389;-69
2022/01/23 00:35:25;;;;;;;4.28;3.03;;;;;;;2.57;100.00;100487.47;4945615;28;20102;-69
2022/01/23 00:37:51;;;;;;;1.90;1.80;;;;;;;2.46;100.00;100488.66;4953641;28;20399;-69
2022/01/23 00:40:17;;;;;;;2.67;2.38;;;;;;;2.51;100.00;100493.97;4953306;28;20031;-69
2022/01/23 00:42:43;;;;;;;2.42;2.33;;;;;;;2.57;100.00;100486.59;4953546;28;20037;-69
2022/01/23 00:48:16;;;;;;;4.88;2.95;;;;;;;2.90;100.00;100481.97;4894455;29;20111;-69
2022/01/23 00:50:44;;;;;;;3.55;3.25;;;;;;;2.78;100.00;100482.34;4894224;29;20485;-69
2022/01/23 00:53:12;;;;;;;2.88;2.75;;;;;;;2.74;100.00;100485.56;4923537;28;20045;-69
2022/01/23 00:55:40;;;;;;;2.53;2.35;;;;;;;2.83;100.00;100480.84;4953735;28;20027;-69
2022/01/23 00:58:05;;;;;;;5.63;2.55;;;;;;;2.81;100.00;100487.59;4953401;28;20065;-69
2022/01/23 08:00:29;;;;;;;3.63;3.17;;;;;;;3.11;100.00;100599.75;5975741;23;20015;31
2022/01/23 08:02:54;;;;;;;4.97;4.50;;;;;;;3.11;100.00;100602.31;4895271;29;20230;-67
2022/01/23 08:05:20;;;;;;;3.45;2.67;;;;;;;3.11;100.00;100604.88;4896643;29;20474;-67
2022/01/23 08:07:45;;;;;;;4.20;3.63;;;;;;;3.11;100.00;100593.75;4896687;29;20099;-67
2022/01/23 08:10:11;;;;;;;8.65;2.78;;;;;;;3.12;100.00;100596.38;4896969;29;20434;-67
2022/01/23 08:12:36;;;;;;;3.38;3.17;;;;;;;3.15;100.00;100606.75;4897321;29;20033;-67
2022/01/23 08:15:04;;;;;;;3.72;3.42;;;;;;;3.22;100.00;100597.63;4897713;29;20029;-68
2022/01/23 08:17:29;;;;;;;3.47;3.17;;;;;;;3.40;100.00;100598.34;4896864;29;20036;-68
2022/01/23 08:20:00;;;;;;;2.97;2.33;;;;;;;3.51;100.00;100596.22;4896937;29;20442;-68
2022/01/23 08:22:27;;;;;;;2.85;2.65;;;;;;;3.59;100.00;100605.97;4896762;29;20024;-68
2022/01/23 08:24:54;;;;;;;5.60;3.70;;;;;;;3.68;100.00;100613.16;4896924;29;20033;-68
2022/01/23 08:27:21;;;;;;;5.72;4.32;;;;;;;3.69;100.00;100612.31;4896601;29;20025;-69
2022/01/23 08:29:46;;;;;;;8.13;4.75;;;;;;;3.70;100.00;100603.81;4896889;29;20100;-69
2022/01/23 08:32:12;;;;;;;7.68;3.28;;;;;;;3.65;100.00;100600.19;4896670;29;20024;-68
2022/01/23 08:34:38;;;;;;;4.63;3.53;;;;;;;3.50;100.00;100607.28;4899067;29;20113;-68
2022/01/23 08:37:05;;;;;;;3.80;3.40;;;;;;;3.39;100.00;100616.25;4900323;29;20486;-68
2022/01/23 08:39:34;;;;;;;3.20;3.00;;;;;;;3.68;100.00;100614.84;4900524;29;20478;-69
2022/01/23 08:42:00;;;;;;;4.03;2.70;;;;;;;3.80;100.00;100616.16;4900510;29;20500;-69
2022/01/23 08:44:27;;;;;;;4.35;3.00;;;;;;;3.97;100.00;100613.41;4900443;29;20041;-68
2022/01/23 08:46:54;;;;;;;4.85;4.45;;;;;;;4.16;100.00;100615.84;4900511;29;20260;-68
2022/01/23 08:49:21;;;;;;;5.38;2.97;;;;;;;4.28;100.00;100612.84;4900610;29;20076;-68
2022/01/23 08:51:48;;;;;;;5.35;4.45;;;;;;;4.39;99.35;100617.53;4900448;29;20111;-68
2022/01/23 08:54:14;;;;;;;3.85;3.05;;;;;;;4.46;97.06;100610.97;4900181;29;20020;-68
2022/01/23 08:56:40;;;;;;;3.17;2.97;;;;;;;4.37;97.35;100611.50;4900362;29;20025;-69
2022/01/23 08:59:06;;;;;;;8.18;5.47;;;;;;;4.48;96.98;100608.44;4900245;29;20028;-68
2022/01/23 09:01:35;;;;;;;4.72;3.88;;;;;;;4.30;97.61;100604.41;4899023;29;20099;-68
2022/01/23 09:04:00;;;;;;;6.38;3.15;;;;;;;4.21;95.43;100606.63;4899743;29;20021;-68
2022/01/23 09:06:26;;;;;;;5.93;4.63;;;;;;;4.21;96.28;100601.50;4899903;29;20032;-68
2022/01/23 09:08:53;;;;;;;5.45;4.55;;;;;;;4.29;96.25;100602.63;4900086;29;20104;-68
2022/01/23 09:11:27;;;;;;;9.20;3.15;;;;;;;4.49;95.80;100605.03;4900045;29;20036;-68
2022/01/23 09:14:06;;;;;;;4.28;3.65;;;;;;;4.61;95.36;100595.22;4900184;29;20390;-69
2022/01/23 09:16:38;;;;;;;7.70;4.25;;;;;;;4.93;92.75;100595.44;4899831;29;20024;-69
2022/01/23 09:19:05;;;;;;;5.55;3.95;;;;;;;4.86;93.32;100600.38;4899855;29;20483;-68
2022/01/23 09:21:31;;;;;;;11.90;5.18;;;;;;;5.23;91.51;100593.91;4899847;29;20394;-68
2022/01/23 09:23:56;;;;;;;5.13;3.38;;;;;;;5.09;87.49;100605.44;4899794;29;20024;-68
2022/01/23 09:26:23;;;;;;;6.72;4.65;;;;;;;4.92;89.28;100601.41;4899659;29;20406;-68
2022/01/23 09:28:52;;;;;;;5.97;4.03;;;;;;;5.26;89.87;100591.44;4899695;29;20494;-67
2022/01/23 09:31:27;;;;;;;8.70;3.85;;;;;;;5.56;88.03;100588.09;4899484;29;20475;-66
2022/01/23 09:33:53;;;;;;;5.15;3.17;;;;;;;5.49;87.36;100592.19;4899721;29;20371;-66
2022/01/23 09:36:18;;;;;;;8.55;4.45;;;;;;;5.37;87.28;100587.53;4899193;29;20044;-67
2022/01/23 09:38:44;;;;;;;7.80;3.42;;;;;;;5.36;88.75;100580.63;4899671;29;20490;-66
2022/01/23 09:41:14;;;;;;;3.63;2.65;;;;;;;5.61;86.28;100576.28;4899869;29;20133;-67
2022/01/23 09:43:42;;;;;;;4.85;3.80;;;;;;;5.56;87.05;100585.50;4899451;29;20116;-66
2022/01/23 09:46:08;;;;;;;5.18;3.13;;;;;;;5.31;88.72;100592.44;4898592;29;20063;-66
2022/01/23 09:48:35;;;;;;;4.57;4.15;;;;;;;5.47;88.24;100593.84;4899413;29;20120;-66
2022/01/23 09:51:00;;;;;;;4.57;3.45;;;;;;;5.34;89.01;100592.56;4899181;29;20500;-67
2022/01/23 09:53:27;;;;;;;8.18;3.63;;;;;;;5.24;88.48;100595.66;4899328;29;20108;-66
2022/01/23 09:55:58;;;;;;;4.35;3.17;;;;;;;5.15;89.70;100605.63;4899033;29;20036;-66
2022/01/23 09:58:23;;;;;;;4.65;3.85;;;;;;;5.04;90.37;100602.72;4899458;29;20040;-66
2022/01/23 10:00:49;;;;;;;6.05;3.90;;;;;;;4.96;91.22;100605.84;4899232;29;20048;-67
2022/01/23 10:03:19;;;;;;;12.02;3.30;;;;;;;5.07;89.76;100601.94;4899108;29;20017;-66
2022/01/23 10:05:49;;;;;;;4.68;3.83;;;;;;;4.88;89.70;100601.31;4907901;29;20021;-66
2022/01/23 10:08:16;;;;;;;2.67;2.40;;;;;;;5.12;91.10;100610.66;4899014;29;20028;-66
2022/01/23 10:10:42;;;;;;;2.08;1.95;;;;;;;5.22;89.10;100594.75;4898886;29;20102;-67
2022/01/23 10:13:08;;;;;;;4.82;3.60;;;;;;;5.33;88.55;100595.97;4899151;29;20140;-66
2022/01/23 10:15:33;;;;;;;4.53;4.13;;;;;;;4.97;88.50;100605.00;4898817;29;20024;-67
2022/01/23 10:18:00;;;;;;;2.97;2.67;;;;;;;5.14;87.74;100598.75;4898817;29;20028;-66
2022/01/23 10:20:27;;;;;;;2.88;2.63;;;;;;;4.97;88.65;100610.16;4898842;29;20120;-67
2022/01/23 10:22:54;;;;;;;2.60;2.38;;;;;;;4.94;87.14;100600.66;4898768;29;20029;-67
2022/01/23 10:25:26;;;;;;;3.25;2.90;;;;;;;4.94;86.98;100604.94;4898566;29;20024;-66
2022/01/23 10:28:03;;;;;;;5.05;3.55;;;;;;;5.13;86.77;100602.16;4898757;29;20029;-66
2022/01/23 10:30:42;;;;;;;4.65;2.80;;;;;;;4.84;87.86;100604.59;4898704;29;20028;-67
2022/01/23 10:33:10;;;;;;;2.08;1.95;;;;;;;4.81;88.45;100604.50;4898476;29;20040;-67
2022/01/23 10:35:57;;;;;;;2.78;2.58;;;;;;;4.79;88.55;100608.72;4898210;29;20017;-66
2022/01/23 10:38:26;;;;;;;5.43;3.70;;;;;;;4.92;88.46;100603.97;4898714;29;20025;-66
2022/01/23 10:41:47;;;;;;;5.37;3.80;;;;;;;4.70;89.38;100605.81;4898442;29;20021;-66
2022/01/23 10:49:51;;;;;;;3.67;3.40;;;;;;;4.70;88.55;100603.25;4898396;29;20036;-66
2022/01/23 10:52:33;;;;;;;7.07;3.10;;;;;;;4.55;89.45;100601.03;4898051;29;20037;-66
2022/01/23 10:55:00;;;;;;;5.07;1.80;;;;;;;4.45;88.10;100598.94;4898184;29;20031;-67
2022/01/23 10:57:38;;;;;;;2.33;1.92;;;;;;;4.43;88.52;100589.44;4897211;29;20096;-66
2022/01/23 11:00:07;;;;;;;2.17;1.98;;;;;;;4.44;88.68;100592.03;4898159;29;20020;-66
2022/01/23 11:02:38;;;;;;;1.57;1.47;;;;;;;4.62;88.28;100586.69;4897931;29;20035;-67
2022/01/23 11:05:06;;;;;;;2.60;2.33;;;;;;;4.67;87.08;100584.28;4897725;29;20024;-66
2022/01/23 11:07:33;;;;;;;6.15;3.45;;;;;;;4.64;86.63;100585.03;4897542;29;20037;-67
2022/01/23 11:10:03;;;;;;;2.53;2.40;;;;;;;4.65;86.43;100581.69;4897879;29;20486;-66
2022/01/23 11:12:46;;;;;;;3.50;3.20;;;;;;;4.75;86.50;100583.75;4897700;29;20036;-68
2022/01/23 11:18:15;;;;;;;5.57;2.92;;;;;;;5.03;84.27;100574.38;5069265;28;20469;-68
2022/01/23 11:20:46;;;;;;;2.42;2.22;;;;;;;5.00;84.44;100585.44;5069070;28;20176;-69
2022/01/23 11:23:21;;;;;;;3.72;2.35;;;;;;;4.87;85.38;100584.16;5069180;28;20029;-69
2022/01/23 11:25:56;;;;;;;1.85;1.70;;;;;;;5.19;85.52;100573.22;5068717;28;20099;-68
2022/01/23 11:28:50;;;;;;;6.03;4.03;;;;;;;5.28;84.50;100571.81;5068973;28;20060;-69
2022/01/23 11:31:18;;;;;;;2.30;2.08;;;;;;;5.47;82.69;100569.84;5064018;28;20474;-69
2022/01/23 11:33:45;;;;;;;4.97;3.30;;;;;;;5.43;82.93;100565.41;5071020;28;20095;-69
2022/01/23 11:36:11;;;;;;;5.47;3.88;;;;;;;5.41;82.37;100562.78;5072318;28;20047;-69
2022/01/23 11:38:38;;;;;;;2.30;2.10;;;;;;;5.78;80.79;100557.06;5069229;28;20466;-69
2022/01/23 11:54:58;;;;;;;4.97;2.15;;;;;;;6.23;80.59;100548.97;5056381;28;20084;-70
2022/01/23 11:57:33;;;;;;;3.28;2.97;;;;;;;6.60;76.46;100549.97;5068431;28;20458;-69
2022/01/23 12:00:01;;;;;;;2.40;2.17;;;;;;;7.04;74.99;100537.38;5068615;28;20033;-70
2022/01/23 12:02:33;;;;;;;5.47;2.10;;;;;;;7.15;75.04;100541.06;5064712;28;20509;-70
2022/01/23 12:05:19;;;;;;;5.68;3.63;;;;;;;6.90;74.78;100540.47;5069032;28;20032;-70
2022/01/23 12:08:06;;;;;;;6.60;2.78;;;;;;;6.54;74.00;100548.13;5048469;28;20029;-71
2022/01/23 12:10:48;;;;;;;3.35;2.80;;;;;;;7.12;73.58;100546.16;5048398;28;20067;-69
2022/01/23 12:13:54;;;;;;;4.18;3.20;;;;;;;7.29;72.33;100537.09;5047142;28;20040;-70
2022/01/23 12:16:32;;;;;;;4.85;2.67;;;;;;;7.87;70.79;100534.97;5047977;28;20041;-70
2022/01/23 12:19:18;;;;;;;;;;;;;;;7.51;70.17;100533.34;5048766;28;20041;-69
2022/01/23 12:21:45;;;;;;;2.08;1.98;;;;;;;7.59;72.03;100534.38;5048074;28;19909;-70
2022/01/23 12:24:12;;;;;;;2.38;2.08;;;;;;;7.33;71.97;100536.34;5048122;28;20025;-70
2022/01/23 12:26:37;;;;;;;2.65;2.25;;;;;;;7.35;73.13;100532.13;5047790;28;20554;-70
2022/01/23 12:29:18;;;;;;;2.13;1.55;;;;;;;7.50;70.02;100517.84;5037312;28;20100;-69
2022/01/23 12:31:44;;;;;;;2.30;2.08;;;;;;;7.41;69.87;100519.34;5034692;28;20022;-69
2022/01/23 12:34:10;;;;;;;3.35;2.53;;;;;;;7.07;69.67;100522.84;5054147;28;20524;-70
2022/01/23 12:36:38;;;;;;;3.40;1.65;;;;;;;7.12;68.27;100515.22;5061730;28;20068;-69
2022/01/23 12:39:06;;;;;;;2.92;2.15;;;;;;;7.25;69.33;100517.25;5054603;28;20524;-69
2022/01/23 12:41:51;;;;;;;7.82;2.00;;;;;;;7.22;69.84;100517.19;5054315;28;20025;-69
2022/01/23 12:44:22;;;;;;;4.35;2.03;;;;;;;6.76;67.82;100513.47;5054470;28;20060;-70
2022/01/23 12:46:51;;;;;;;1.15;1.15;;;;;;;6.32;68.18;100518.34;5054034;28;20486;-70
2022/01/23 12:49:30;;;;;;;1.33;1.25;;;;;;;6.32;70.23;100515.75;5054364;28;20036;-70
2022/01/23 12:52:10;;;;;;;1.83;1.70;;;;;;;6.41;71.05;100523.72;5054353;28;20112;-69
2022/01/23 12:54:48;;;;;;;4.30;2.72;;;;;;;6.45;69.76;100514.41;5054260;28;20377;-70
2022/01/23 12:57:16;;;;;;;1.35;1.23;;;;;;;5.90;69.82;100518.88;5053816;28;20025;-70
2022/01/23 12:59:43;;;;;;;2.08;1.58;;;;;;;6.36;70.18;100515.00;5054361;28;20025;-68
2022/01/23 13:02:16;;;;;;;1.45;0.82;;;;;;;6.59;62.70;100507.03;5049565;28;20033;-69
2022/01/23 13:04:48;;;;;;;1.90;1.48;;;;;;;6.28;66.43;100516.50;5049305;28;20029;-68
2022/01/23 13:08:09;;;;;;;0.90;0.90;;;;;;;5.92;61.81;100522.38;5062021;28;20107;-69
2022/01/23 13:10:28;;;;;;;1.15;1.15;;;;;;;6.09;63.94;100511.69;5043355;28;20033;-71
2022/01/23 13:13:16;;;;;;;1.55;1.17;;;;;;;6.24;64.49;100514.69;5053841;28;20024;-70
2022/01/23 13:32:07;;;;;;;1.10;1.10;;;;;;;5.46;63.63;100498.66;5050481;28;20124;-69
2022/01/23 13:34:35;;;;;;;0.73;0.73;;;;;;;5.29;64.01;100501.59;5055482;28;20127;-69
2022/01/23 13:37:06;;;;;;;1.90;1.00;;;;;;;5.36;66.54;100498.38;5061380;28;20021;-69
2022/01/23 13:39:43;;;;;;;0.73;0.73;;;;;;;5.31;66.51;100493.94;5052803;28;20029;-68
2022/01/23 13:53:33;;;;;;;0.80;0.80;;;;;;;5.11;71.21;100493.31;5053517;28;20114;-69
2022/01/23 13:58:52;;;;;;;0.93;0.93;;;;;;;5.35;72.18;100491.50;5053165;28;20040;-68
2022/01/23 14:03:43;;;;;;;5.47;1.67;;;;;;;5.25;72.21;100484.34;5054886;28;20028;-69
2022/01/23 14:06:09;;;;;;;1.15;1.13;;;;;;;5.21;71.64;100477.34;5055383;28;20056;-68
2022/01/23 14:08:34;;;;;;;1.10;1.10;;;;;;;5.27;71.47;100481.81;5053658;28;20032;-67
2022/01/23 14:11:00;;;;;;;0.77;0.77;;;;;;;5.21;70.43;100481.63;5052708;28;20444;-67
2022/01/23 14:15:54;;;;;;;5.03;1.13;;;;;;;5.10;70.32;100483.88;5087097;22;20056;-67
2022/01/23 14:18:24;;;;;;;2.53;1.65;;;;;;;5.03;69.95;100474.19;5032764;28;20064;-67
2022/01/23 14:21:06;;;;;;;0.88;0.80;;;;;;;5.15;69.91;100477.16;5031879;28;20377;-67
2022/01/23 14:23:34;;;;;;;0.80;0.80;;;;;;;5.30;71.16;100481.91;5031300;28;20056;-66
2022/01/23 14:26:08;;;;;;;0.95;0.95;;;;;;;5.46;70.41;100472.94;5031431;28;20121;-67
2022/01/23 14:28:38;;;;;;;1.27;1.13;;;;;;;5.34;69.75;100478.59;5031537;28;20073;-67
2022/01/23 14:31:14;;;;;;;1.10;1.05;;;;;;;5.27;70.45;100481.81;5031461;28;20032;-73
2022/01/23 14:33:39;;;;;;;0.77;0.77;;;;;;;5.29;70.35;100481.03;5039394;28;20163;-67
2022/01/23 14:36:17;;;;;;;1.02;0.93;;;;;;;5.37;71.29;100478.72;5038584;28;20052;-67
2022/01/23 14:38:59;;;;;;;1.15;1.13;;;;;;;5.28;69.02;100484.44;5012656;28;20033;-67
2022/01/23 14:41:27;;;;;;;7.05;1.65;;;;;;;5.08;66.52;100481.25;5012627;28;20026;-67
2022/01/23 14:43:53;;;;;;;3.45;1.92;;;;;;;5.01;67.45;100486.13;5012438;28;20032;-67
2022/01/23 14:46:18;;;;;;;0.60;0.60;;;;;;;4.88;66.95;100484.84;5012547;28;20096;-67
2022/01/23 14:48:48;;;;;;;2.78;1.77;;;;;;;4.96;68.54;100482.53;5012532;28;20498;-67
2022/01/23 14:51:20;;;;;;;1.73;1.33;;;;;;;4.95;69.32;100488.53;5012427;28;20033;-67
2022/01/23 14:53:46;;;;;;;1.38;1.05;;;;;;;5.01;70.36;100483.56;4994815;28;20029;-67
2022/01/23 14:56:13;;;;;;;0.82;0.82;;;;;;;4.90;67.43;100491.81;5012206;28;20021;-71
2022/01/23 14:58:40;;;;;;;0.90;0.90;;;;;;;4.75;70.61;100493.88;5012671;28;20041;-71
2022/01/23 15:01:10;;;;;;;1.23;1.13;;;;;;;4.77;67.44;100489.66;5012413;28;20382;-75
2022/01/23 15:03:36;;;;;;;0.90;0.90;;;;;;;4.73;68.58;100492.94;5036671;28;20029;-78
2022/01/23 15:06:02;;;;;;;0.50;0.50;;;;;;;4.77;69.30;100483.66;5039926;28;20040;-66
2022/01/23 15:08:28;;;;;;;0.50;0.50;;;;;;;4.78;68.85;100491.38;5050244;28;20035;-66
2022/01/23 15:10:56;;;;;;;2.08;1.15;;;;;;;4.75;68.84;100496.44;5051813;28;20533;-67
2022/01/23 15:13:22;;;;;;;0.50;0.50;;;;;;;4.69;68.93;100493.69;5051947;28;20657;-67
2022/01/23 15:15:49;;;;;;;0.73;0.73;;;;;;;4.69;68.96;100496.25;5051435;28;20029;-67
2022/01/23 15:18:14;;;;;;;5.25;1.30;;;;;;;4.65;68.22;100499.53;5051751;28;20108;-70
2022/01/23 15:20:40;;;;;;;1.02;1.02;;;;;;;4.55;68.45;100492.34;5051794;28;20086;-71
2022/01/23 15:23:07;;;;;;;1.67;1.58;;;;;;;4.61;69.59;100492.53;5051760;28;20036;-71
2022/01/23 15:25:33;;;;;;;1.40;0.82;;;;;;;4.50;69.36;100497.31;5051695;28;20115;-71
2022/01/23 15:28:00;;;;;;;0.80;0.80;;;;;;;4.51;68.96;100490.50;5051680;28;20096;-71
2022/01/23 15:30:26;;;;;;;1.05;0.95;;;;;;;4.75;70.03;100478.47;5051779;28;20029;-67
2022/01/23 15:32:53;;;;;;;0.98;0.98;;;;;;;4.58;68.76;100480.47;5046248;28;20032;-67
2022/01/23 15:35:21;;;;;;;1.23;1.23;;;;;;;4.52;67.25;100485.41;5034883;28;20017;-67
2022/01/23 15:37:47;;;;;;;0.57;0.57;;;;;;;4.52;67.78;100481.97;5038527;28;20449;-67
2022/01/23 15:40:15;;;;;;;3.17;1.95;;;;;;;4.54;68.87;100493.13;5031728;28;20112;-67
2022/01/23 15:42:42;;;;;;;1.50;1.40;;;;;;;4.49;69.51;100500.69;5031717;28;20030;-67
2022/01/23 15:45:08;;;;;;;1.35;1.25;;;;;;;4.45;69.93;100505.66;5031653;28;20044;-67
2022/01/23 15:47:34;;;;;;;1.65;1.27;;;;;;;4.49;68.61;100507.50;5031534;28;20103;-68
2022/01/23 15:50:00;;;;;;;0.70;0.70;;;;;;;4.42;68.24;100508.13;5031670;28;20053;-67
2022/01/23 15:52:26;;;;;;;1.00;1.00;;;;;;;4.36;68.31;100507.09;5031655;28;20031;-67
2022/01/23 15:54:51;;;;;;;0.65;0.65;;;;;;;4.35;69.20;100510.50;5031613;28;20104;-67
2022/01/23 15:57:16;;;;;;;0.90;0.80;;;;;;;4.33;70.24;100512.13;5031394;28;20364;-67
2022/01/23 15:59:43;;;;;;;1.15;1.13;;;;;;;4.30;70.50;100512.03;5031714;28;20113;-67
2022/01/23 16:02:08;;;;;;;1.17;1.17;;;;;;;4.33;70.16;100516.38;5031528;28;20021;-67
2022/01/23 16:04:37;;;;;;;1.15;0.93;;;;;;;4.27;70.81;100511.03;5042423;28;20032;-67
2022/01/23 16:07:04;;;;;;;1.35;1.35;;;;;;;4.26;71.33;100515.31;5043227;28;20021;-67
2022/01/23 16:09:30;;;;;;;1.10;0.80;;;;;;;4.26;72.35;100510.19;5035159;28;20025;-67
2022/01/23 16:11:55;;;;;;;0.50;0.50;;;;;;;4.27;71.49;100514.47;5035338;28;20021;-67
2022/01/23 16:14:21;;;;;;;3.33;1.05;;;;;;;4.20;71.28;100512.50;5034928;28;20033;-67
2022/01/23 16:16:48;;;;;;;0.63;0.63;;;;;;;4.22;72.57;100518.56;5034945;28;20031;-67
2022/01/23 16:19:14;;;;;;;1.00;0.90;;;;;;;4.10;73.24;100508.72;5035035;28;20049;-67
2022/01/23 16:21:41;;;;;;;0.70;0.70;;;;;;;4.13;72.69;100519.13;5034863;28;20076;-67
2022/01/23 16:24:06;;;;;;;1.75;1.15;;;;;;;4.06;73.35;100516.25;5034758;28;20505;-67
2022/01/23 16:26:31;;;;;;;0.60;0.60;;;;;;;4.03;73.09;100514.47;5034734;28;20029;-67
2022/01/23 16:28:57;;;;;;;0.98;0.98;;;;;;;4.04;73.21;100507.66;5034979;28;20120;-66
2022/01/23 16:31:22;;;;;;;1.30;1.20;;;;;;;4.09;71.65;100511.25;5034811;28;20104;-71
2022/01/23 16:33:47;;;;;;;3.53;1.30;;;;;;;4.08;71.02;100517.22;5042674;28;20021;-72
2022/01/23 16:36:13;;;;;;;0.90;0.90;;;;;;;4.10;70.91;100518.13;5042273;28;20036;-73
2022/01/23 16:38:38;;;;;;;1.75;1.65;;;;;;;4.11;71.28;100520.75;5034765;28;20108;-72
2022/01/23 16:41:05;;;;;;;1.00;1.00;;;;;;;4.13;72.02;100513.13;5034582;28;20088;-72
2022/01/23 16:43:31;;;;;;;1.13;1.13;;;;;;;4.17;71.74;100514.97;5034652;28;20068;-71
2022/01/23 16:45:58;;;;;;;0.70;0.70;;;;;;;4.15;71.60;100514.03;5034434;28;20060;-71
2022/01/23 16:48:25;;;;;;;3.70;1.73;;;;;;;4.12;72.54;100507.13;5034426;28;20033;-71
2022/01/23 16:50:50;;;;;;;1.95;1.85;;;;;;;4.12;73.59;100512.25;4961280;28;20496;-71
2022/01/23 16:53:16;;;;;;;1.42;1.33;;;;;;;4.15;73.50;100511.47;4974667;28;20031;-71
2022/01/23 16:55:42;;;;;;;2.05;1.90;;;;;;;4.17;74.37;100519.25;4975409;28;20098;-71
2022/01/23 16:58:08;;;;;;;2.25;1.75;;;;;;;4.01;75.71;100522.91;4975368;28;20022;-65
2022/01/23 17:00:34;;;;;;;2.60;1.52;;;;;;;4.08;74.47;100519.78;4975581;28;20105;-66
2022/01/23 17:03:00;;;;;;;1.88;1.35;;;;;;;4.04;76.03;100515.34;4981153;28;20053;-65
2022/01/23 17:05:26;;;;;;;2.03;1.90;;;;;;;4.04;73.22;100515.34;4978708;28;20027;-65
2022/01/23 17:07:51;;;;;;;5.07;1.75;;;;;;;4.08;73.86;100514.63;4981290;28;20023;-65
2022/01/23 17:10:17;;;;;;;2.30;1.75;;;;;;;4.02;74.10;100514.44;4975301;28;20435;-72
2022/01/23 17:12:43;;;;;;;1.30;0.98;;;;;;;4.03;74.60;100506.78;4975387;28;20365;-72
2022/01/23 17:15:09;;;;;;;2.25;1.52;;;;;;;4.07;75.79;100500.09;4974895;28;20062;-72
2022/01/23 17:17:34;;;;;;;1.45;1.40;;;;;;;4.03;76.13;100491.38;4974919;28;20472;-73
2022/01/23 17:20:00;;;;;;;2.72;1.40;;;;;;;3.99;77.12;100493.78;4975096;28;20049;-72
2022/01/23 17:22:25;;;;;;;1.48;1.38;;;;;;;3.92;76.10;100502.09;4975112;28;20026;-73
2022/01/23 17:24:51;;;;;;;1.95;1.85;;;;;;;3.94;77.74;100495.31;4975179;28;20027;-72
2022/01/23 17:27:16;;;;;;;1.58;1.50;;;;;;;4.09;76.92;100490.72;4974901;28;20030;-73
2022/01/23 17:29:41;;;;;;;1.58;1.52;;;;;;;3.92;78.42;100494.41;4957750;28;20081;-72
2022/01/23 17:32:09;;;;;;;2.63;2.42;;;;;;;3.90;77.88;100498.59;4974663;28;20413;-72
2022/01/23 17:34:39;;;;;;;8.23;4.10;;;;;;;3.86;77.91;100490.75;4982490;28;20041;-72
2022/01/23 17:37:04;;;;;;;9.75;2.88;;;;;;;3.81;78.72;100489.72;4982560;28;20022;-72
2022/01/23 17:39:30;;;;;;;2.55;2.35;;;;;;;3.80;79.20;100493.13;4974839;28;20109;-72
2022/01/23 17:41:55;;;;;;;5.10;2.90;;;;;;;3.76;81.11;100486.13;4974838;28;20429;-73
2022/01/23 17:44:21;;;;;;;4.18;2.05;;;;;;;3.78;80.58;100497.31;4974478;28;20143;-72
2022/01/23 17:46:53;;;;;;;1.92;1.75;;;;;;;3.88;81.71;100490.84;4974497;28;20058;-72
2022/01/23 17:49:33;;;;;;;1.08;1.08;;;;;;;3.80;79.76;100495.69;4974540;28;20157;-72
2022/01/23 17:51:58;;;;;;;1.83;1.73;;;;;;;3.82;80.05;100491.50;4974650;28;20032;-73
2022/01/23 17:54:23;;;;;;;1.70;1.60;;;;;;;3.76;79.84;100501.50;4974355;28;20173;-72
2022/01/23 17:56:50;;;;;;;5.30;2.88;;;;;;;3.79;79.88;100500.75;4974209;28;20149;-73
2022/01/23 17:59:15;;;;;;;2.42;1.85;;;;;;;3.73;80.96;100491.16;4974454;28;20027;-72
2022/01/23 18:01:41;;;;;;;2.05;1.95;;;;;;;3.76;80.79;100493.81;4974250;28;20360;-71
2022/01/23 18:04:09;;;;;;;1.38;1.38;;;;;;;3.74;80.97;100492.91;4982280;28;20078;-73
2022/01/23 18:06:35;;;;;;;4.28;1.67;;;;;;;3.72;82.31;100504.75;4981785;28;21653;-73
2022/01/23 18:09:05;;;;;;;3.28;2.38;;;;;;;3.80;82.12;100503.38;4974279;28;20030;-72
2022/01/23 18:11:30;;;;;;;3.28;2.72;;;;;;;3.66;81.91;100509.66;4973267;28;20407;-73
2022/01/23 18:13:58;;;;;;;1.65;1.55;;;;;;;3.82;83.38;100504.31;4973434;28;20030;-74
2022/01/23 18:16:27;;;;;;;1.35;1.35;;;;;;;3.74;82.87;100508.28;4974101;28;20432;-73
2022/01/23 18:18:53;;;;;;;0.70;0.70;;;;;;;3.80;83.26;100508.50;4974126;28;20033;-73
2022/01/23 18:21:18;;;;;;;3.53;2.33;;;;;;;3.72;82.75;100509.91;4973995;28;20030;-72
2022/01/23 18:23:46;;;;;;;1.15;1.10;;;;;;;3.59;83.48;100502.59;4973747;28;20447;-73
2022/01/23 18:26:12;;;;;;;1.20;1.13;;;;;;;3.53;83.97;100517.69;4973314;28;20018;-73
2022/01/23 18:28:37;;;;;;;1.10;1.10;;;;;;;3.54;83.76;100504.09;4973796;28;20050;-73
2022/01/23 18:31:02;;;;;;;1.00;1.00;;;;;;;3.50;84.37;100512.47;4974043;28;20030;-73
2022/01/23 18:33:28;;;;;;;1.10;1.10;;;;;;;3.46;84.80;100520.84;4981691;28;20080;-73
2022/01/23 18:35:54;;;;;;;1.23;1.23;;;;;;;3.42;85.10;100519.00;4978646;28;20109;-73
2022/01/23 18:38:19;;;;;;;1.10;1.00;;;;;;;3.42;85.12;100519.00;4976320;28;20115;-73
2022/01/23 18:40:45;;;;;;;1.65;1.55;;;;;;;3.37;85.24;100515.38;4973605;28;20089;-73
2022/01/23 18:43:10;;;;;;;2.35;2.17;;;;;;;3.38;85.25;100517.13;4973649;28;20113;-73
2022/01/23 18:45:35;;;;;;;3.53;2.58;;;;;;;3.40;84.72;100520.63;4973432;28;20519;-73
2022/01/23 18:48:01;;;;;;;0.98;0.98;;;;;;;3.32;85.13;100523.75;4973421;28;20019;-73
2022/01/23 18:50:27;;;;;;;1.75;1.20;;;;;;;3.30;85.44;100520.28;4973418;28;20034;-73
2022/01/23 18:55:19;;;;;;;2.60;2.40;;;;;;;3.33;86.32;100510.13;4973372;28;20427;-73
2022/01/23 18:57:51;;;;;;;1.35;1.25;;;;;;;3.31;86.12;100516.88;4973144;28;20019;-73
2022/01/23 19:00:17;;;;;;;4.40;2.28;;;;;;;3.28;86.22;100516.75;4973345;28;20031;-73
2022/01/23 19:02:56;;;;;;;1.75;1.65;;;;;;;3.30;86.13;100509.16;4977218;28;20025;-73
2022/01/23 19:05:26;;;;;;;2.30;1.55;;;;;;;3.28;86.33;100511.63;4976327;28;20630;-73
2022/01/23 19:08:00;;;;;;;0.85;0.85;;;;;;;3.23;86.73;100512.28;4979541;28;20432;-73
2022/01/23 19:10:35;;;;;;;2.60;2.45;;;;;;;3.21;86.65;100514.78;4973314;28;20491;-73
2022/01/23 19:13:02;;;;;;;4.45;2.17;;;;;;;3.26;87.03;100513.28;4973454;28;20041;-73
2022/01/23 19:15:27;;;;;;;2.63;2.42;;;;;;;3.17;87.39;100523.16;4973000;28;20053;-73
2022/01/23 19:17:53;;;;;;;1.50;1.50;;;;;;;3.08;87.90;100522.78;4973036;28;20027;-73
2022/01/23 19:20:19;;;;;;;1.25;1.25;;;;;;;3.12;87.68;100516.97;4971946;28;20487;-73
2022/01/23 19:22:45;;;;;;;1.38;1.38;;;;;;;3.12;88.13;100516.97;4973056;28;20110;-73
2022/01/23 19:25:11;;;;;;;1.48;1.38;;;;;;;3.15;88.33;100517.09;4973275;28;20166;-73
2022/01/23 19:27:38;;;;;;;1.00;1.00;;;;;;;3.02;88.67;100515.72;4972742;28;20022;-73
2022/01/23 19:30:06;;;;;;;1.77;1.67;;;;;;;3.08;89.18;100517.66;4973080;28;20038;-73
2022/01/23 19:32:33;;;;;;;1.17;1.17;;;;;;;3.04;88.60;100520.91;4975082;28;20041;-71
2022/01/23 19:34:59;;;;;;;1.08;1.08;;;;;;;3.08;89.08;100522.78;4978562;28;20050;-72
2022/01/23 19:37:24;;;;;;;2.03;1.90;;;;;;;2.99;89.19;100517.28;4980695;28;20050;-73
2022/01/23 19:39:50;;;;;;;1.65;1.55;;;;;;;3.00;89.17;100516.50;4976505;28;20030;-73
2022/01/23 19:42:26;;;;;;;1.40;1.40;;;;;;;3.03;89.21;100519.16;4976945;28;20369;-66
2022/01/23 19:44:58;;;;;;;1.33;1.23;;;;;;;3.07;88.89;100531.28;4976767;28;20081;-66
2022/01/23 19:47:47;;;;;;;1.33;1.33;;;;;;;3.07;89.17;100536.41;4976716;28;20026;-66
2022/01/23 19:50:11;;;;;;;6.60;4.10;;;;;;;3.07;89.98;100532.16;4976635;28;20042;-66
2022/01/23 19:52:37;;;;;;;3.78;1.77;;;;;;;3.10;89.22;100531.41;4976811;28;20023;-66